Time;durP1;ratioP1;P1;durP2;ratioP2;P2;SDS_P1;SDS_P2;PMS_P1;PMS_P2;Temp;Humidity;BMP_temperature;BMP_pressure;BME280_temperature;BME280_humidity;BME280_pressure;Samples;Min_cycle;Max_cycle;Signal;HPM_P1;HPM_P2
2022/09/13 00:01:37;;;;;;;3.10;2.60;;;;;;;10.42;73.42;97070.50;110085;1247;58939;-65
2022/09/13 00:04:07;;;;;;;3.70;2.70;;;;;;;10.41;73.43;97069.90;110101;1247;58901;-65
2022/09/13 00:06:36;;;;;;;3.20;2.80;;;;;;;10.39;72.29;97066.49;109962;1247;70885;-65
2022/09/13 00:09:05;;;;;;;;;;;;;;;10.38;72.63;97065.91;110061;1247;69771;-66
2022/09/13 00:11:35;;;;;;;4.00;2.80;;;;;;;10.36;71.39;97064.55;110069;1247;67591;-67
2022/09/13 00:14:06;;;;;;;3.80;2.90;;;;;;;10.33;71.82;97064.74;110091;1246;59693;-67
2022/09/13 00:16:36;;;;;;;3.80;2.90;;;;;;;10.32;71.57;97064.86;110020;1247;59675;-65
2022/09/13 00:19:05;;;;;;;3.40;2.40;;;;;;;10.29;71.17;97062.08;110092;1247;71557;-67
2022/09/13 00:21:35;;;;;;;3.70;3.00;;;;;;;10.27;71.24;97064.04;110046;1248;69398;-67
2022/09/13 00:24:04;;;;;;;3.90;2.50;;;;;;;10.24;72.16;97065.98;110053;1247;69397;-67
2022/09/13 00:26:34;;;;;;;3.80;2.90;;;;;;;10.22;71.41;97062.63;110028;1247;59679;-66
2022/09/13 00:29:05;;;;;;;3.90;2.80;;;;;;;10.18;71.82;97061.30;110115;1247;59692;-65
2022/09/13 00:31:37;;;;;;;5.50;3.20;;;;;;;10.16;72.34;97057.31;110001;1250;71393;-66
2022/09/13 00:34:08;;;;;;;4.20;2.90;;;;;;;10.16;72.93;97063.06;110070;1247;69434;-66
2022/09/13 00:36:38;;;;;;;3.40;3.00;;;;;;;10.15;72.92;97058.13;110103;1247;69231;-66
2022/09/13 00:39:11;;;;;;;4.50;3.30;;;;;;;10.13;72.62;97055.45;110005;1248;59754;-65
2022/09/13 00:41:41;;;;;;;3.80;2.90;;;;;;;10.12;72.20;97052.25;110039;1247;59677;-67
2022/09/13 00:44:51;;;;;;;4.00;3.20;;;;;;;10.11;72.00;97053.36;110034;1247;71520;-67
2022/09/13 00:47:26;;;;;;;3.50;2.90;;;;;;;10.07;71.93;97054.34;110073;1247;69245;-65
2022/09/13 00:50:04;;;;;;;4.20;3.10;;;;;;;10.03;72.43;97054.64;110083;1247;69406;-66
2022/09/13 00:52:37;;;;;;;4.30;3.20;;;;;;;9.99;72.70;97050.23;109928;1247;59761;-66
2022/09/13 00:55:22;;;;;;;3.60;2.90;;;;;;;9.97;72.27;97050.77;110014;1247;59688;-66
2022/09/13 00:57:59;;;;;;;4.30;3.10;;;;;;;9.92;72.88;97052.01;110074;1249;70766;-64
2022/09/13 01:00:29;;;;;;;4.10;3.20;;;;;;;9.86;74.15;97052.78;110104;1247;69349;-66
2022/09/13 01:03:01;;;;;;;;;;;;;;;9.80;76.62;97057.49;110046;1247;69451;-66
2022/09/13 01:05:40;;;;;;;4.40;3.40;;;;;;;9.70;77.24;97054.52;110048;1248;59690;-66
2022/09/13 01:08:16;;;;;;;5.30;3.60;;;;;;;9.61;77.84;97057.14;110086;1247;59693;-67
2022/09/13 01:10:51;;;;;;;5.10;3.40;;;;;;;9.50;78.79;97054.44;110044;1248;71516;-65
2022/09/13 01:13:23;;;;;;;4.80;3.60;;;;;;;9.40;79.08;97053.63;110043;1249;68309;-65
2022/09/13 01:15:53;;;;;;;3.40;2.90;;;;;;;9.29;79.49;97054.81;109963;1250;69434;-65
2022/09/13 01:18:26;;;;;;;5.00;3.60;;;;;;;9.19;80.55;97052.91;110002;1248;59760;-65
2022/09/13 01:21:18;;;;;;;4.90;4.20;;;;;;;9.08;79.72;97052.66;109974;1248;60150;-64
2022/09/13 01:23:49;;;;;;;4.40;3.30;;;;;;;8.97;79.12;97050.35;109999;1248;70834;-65
2022/09/13 01:26:37;;;;;;;4.70;4.10;;;;;;;8.89;76.64;97049.52;110101;1247;68653;-65
2022/09/13 01:29:35;;;;;;;5.40;4.10;;;;;;;8.79;77.74;97046.56;110015;1247;68616;-65
2022/09/13 01:32:32;;;;;;;4.60;4.00;;;;;;;8.69;79.31;97044.02;110045;1247;59710;-64
2022/09/13 01:35:21;;;;;;;4.80;3.70;;;;;;;8.61;78.43;97042.30;110100;1248;59684;-67
2022/09/13 01:38:17;;;;;;;5.10;4.10;;;;;;;8.54;78.16;97046.11;110088;1247;71566;-65
2022/09/13 01:40:56;;;;;;;5.60;4.10;;;;;;;8.47;81.38;97053.52;109992;1247;69582;-64
2022/09/13 01:44:01;;;;;;;5.10;3.40;;;;;;;8.43;84.47;97053.14;110047;1249;69419;-65
2022/09/13 01:46:34;;;;;;;5.80;3.50;;;;;;;8.37;79.12;97052.98;110010;1250;59729;-65
2022/09/13 01:49:44;;;;;;;5.70;5.00;;;;;;;8.34;79.17;97055.80;110079;1247;59691;-65
2022/09/13 01:52:50;;;;;;;7.20;4.60;;;;;;;8.29;79.33;97052.17;109665;1250;71481;-67
2022/09/13 01:55:38;;;;;;;6.20;4.00;;;;;;;8.25;80.68;97054.22;110051;1250;68087;-66
2022/09/13 01:58:42;;;;;;;5.80;3.70;;;;;;;8.18;80.62;97050.14;110086;1247;69347;-65
2022/09/13 02:02:02;;;;;;;3.70;2.80;;;;;;;8.13;80.90;97049.27;109815;1250;59764;-66
2022/09/13 02:04:41;;;;;;;5.90;4.50;;;;;;;8.08;86.49;97052.19;109919;1247;59739;-66
2022/09/13 02:07:32;;;;;;;6.20;4.30;;;;;;;8.05;86.67;97049.15;110115;1248;69732;-66
2022/09/13 02:10:12;;;;;;;5.90;4.60;;;;;;;8.01;87.46;97043.45;110110;1248;68451;-66
2022/09/13 02:12:44;;;;;;;6.20;4.30;;;;;;;7.95;85.22;97041.80;110054;1248;68618;-65
2022/09/13 02:15:55;;;;;;;8.30;4.40;;;;;;;7.91;86.60;97040.02;110035;1247;59687;-64
2022/09/13 02:18:34;;;;;;;6.30;4.10;;;;;;;7.84;85.67;97036.45;110069;1250;59673;-67
2022/09/13 02:21:20;;;;;;;5.90;3.90;;;;;;;7.79;86.44;97041.52;109849;1247;71339;-66
2022/09/13 02:24:06;;;;;;;6.70;3.80;;;;;;;7.76;86.62;97039.14;110057;1249;69616;-66
2022/09/13 02:26:39;;;;;;;6.50;4.40;;;;;;;7.74;87.30;97034.09;110142;1248;69390;-66
2022/09/13 02:29:15;;;;;;;6.10;4.50;;;;;;;7.75;90.28;97033.48;109724;1252;59676;-67
2022/09/13 02:31:58;;;;;;;5.00;4.20;;;;;;;7.75;89.72;97031.42;109639;1250;59625;-66
2022/09/13 02:34:44;;;;;;;4.80;3.90;;;;;;;7.75;90.49;97027.75;109737;1250;70754;-67
2022/09/13 02:37:15;;;;;;;5.10;4.10;;;;;;;7.72;87.79;97028.13;109732;1250;69411;-64
2022/09/13 02:40:14;;;;;;;6.70;4.10;;;;;;;7.70;89.39;97025.98;109845;1249;68622;-67
2022/09/13 02:43:01;;;;;;;6.10;5.20;;;;;;;7.67;90.45;97024.09;109589;1250;60043;-66
2022/09/13 02:46:01;;;;;;;5.10;4.30;;;;;;;7.63;90.20;97026.77;109703;1249;59759;-66
2022/09/13 02:49:09;;;;;;;6.60;4.50;;;;;;;7.58;91.45;97028.48;109592;1250;71538;-65
2022/09/13 02:51:45;;;;;;;5.00;3.60;;;;;;;7.55;91.56;97027.52;109671;1250;68620;-66
2022/09/13 02:54:49;;;;;;;5.20;4.20;;;;;;;7.54;91.77;97025.68;109653;1250;68823;-65
2022/09/13 02:57:33;;;;;;;5.90;4.70;;;;;;;7.53;91.65;97022.93;109614;1249;59720;-65
2022/09/13 03:00:04;;;;;;;6.20;4.40;;;;;;;7.56;92.14;97021.20;109685;1250;59756;-65
2022/09/13 03:02:38;;;;;;;7.10;5.20;;;;;;;7.57;89.76;97018.70;109829;1250;71591;-65
2022/09/13 03:05:10;;;;;;;6.20;4.70;;;;;;;7.58;90.33;97017.73;109940;1250;68633;-65
2022/09/13 03:07:40;;;;;;;5.40;4.30;;;;;;;7.59;89.64;97015.43;109818;1250;69589;-65
2022/09/13 03:10:13;;;;;;;5.50;4.30;;;;;;;7.59;87.23;97010.94;109755;1250;59813;-65
2022/09/13 03:13:11;;;;;;;6.30;4.80;;;;;;;7.57;87.54;97008.78;109668;1250;59690;-66
2022/09/13 03:15:50;;;;;;;5.20;3.20;;;;;;;7.58;88.50;97011.85;109705;1250;71611;-65
2022/09/13 03:18:30;;;;;;;5.30;3.90;;;;;;;7.60;88.25;97014.14;109817;1250;68749;-65
2022/09/13 03:21:34;;;;;;;6.30;4.40;;;;;;;7.64;90.56;97017.36;109849;1250;69794;-67
2022/09/13 03:24:07;;;;;;;7.60;4.60;;;;;;;7.66;88.80;97020.19;109850;1250;59696;-67
2022/09/13 03:27:04;;;;;;;6.80;4.60;;;;;;;7.66;89.34;97018.23;109918;1249;59761;-65
2022/09/13 03:29:50;;;;;;;4.70;4.20;;;;;;;7.72;91.69;97022.23;109878;1250;71509;-67
2022/09/13 03:32:35;;;;;;;7.20;4.50;;;;;;;7.78;93.04;97015.20;109923;1250;69399;-67
2022/09/13 03:35:11;;;;;;;6.40;4.40;;;;;;;7.85;93.22;97015.63;110083;1249;69427;-66
2022/09/13 03:37:53;;;;;;;5.40;3.80;;;;;;;7.87;91.83;97010.10;109820;1250;59749;-67
2022/09/13 03:40:32;;;;;;;5.80;4.90;;;;;;;7.87;90.31;97017.05;109791;1250;59713;-65
2022/09/13 03:43:11;;;;;;;5.20;4.30;;;;;;;7.83;91.85;97023.52;109844;1250;71364;-65
2022/09/13 03:45:55;;;;;;;6.40;4.60;;;;;;;7.79;91.19;97028.67;109950;1250;69376;-65
2022/09/13 03:48:26;;;;;;;7.50;5.00;;;;;;;7.73;92.66;97029.42;109884;1249;68639;-65
2022/09/13 03:50:57;;;;;;;5.70;4.30;;;;;;;7.69;92.93;97025.89;109856;1248;59691;-65
2022/09/13 03:53:29;;;;;;;5.80;4.00;;;;;;;7.65;93.19;97024.75;110005;1250;59677;-66
2022/09/13 03:55:58;;;;;;;6.00;4.40;;;;;;;7.61;93.53;97031.61;110014;1250;71512;-67
2022/09/13 03:58:28;;;;;;;5.40;4.50;;;;;;;7.57;91.93;97038.83;109971;1249;68241;-67
2022/09/13 04:00:57;;;;;;;5.60;4.40;;;;;;;7.53;92.49;97033.70;109928;1250;68486;-66
2022/09/13 04:03:27;;;;;;;6.20;4.20;;;;;;;7.49;92.91;97036.05;109655;1250;59726;-66
2022/09/13 04:05:57;;;;;;;6.90;5.10;;;;;;;7.45;93.76;97039.27;109972;1250;59700;-65
2022/09/13 04:08:27;;;;;;;6.90;5.60;;;;;;;7.41;95.06;97034.86;110055;1250;71666;-65
2022/09/13 04:10:57;;;;;;;7.50;6.20;;;;;;;7.38;94.17;97040.95;109603;1252;69274;-67
2022/09/13 04:13:26;;;;;;;11.00;8.70;;;;;;;7.34;92.56;97042.77;109806;1249;68608;-66
2022/09/13 04:16:01;;;;;;;10.70;8.60;;;;;;;7.30;93.95;97044.06;109995;1249;60067;-66
2022/09/13 04:18:30;;;;;;;10.90;8.70;;;;;;;7.27;94.89;97046.35;109843;1250;59674;-66
2022/09/13 04:21:02;;;;;;;12.70;8.80;;;;;;;7.25;94.76;97046.48;109890;1249;70654;-66
2022/09/13 04:23:32;;;;;;;10.40;8.10;;;;;;;7.25;94.67;97044.93;109969;1250;67619;-67
2022/09/13 04:26:03;;;;;;;10.00;7.00;;;;;;;7.25;94.27;97048.20;109907;1250;68724;-66
2022/09/13 04:28:32;;;;;;;12.30;9.30;;;;;;;7.31;94.52;97050.24;109907;1247;59697;-66
2022/09/13 04:31:01;;;;;;;10.60;8.10;;;;;;;7.43;95.78;97048.94;110023;1249;59688;-65
2022/09/13 04:33:30;;;;;;;9.00;5.90;;;;;;;7.52;94.21;97043.86;110131;1248;70612;-65
2022/09/13 04:36:01;;;;;;;8.40;5.50;;;;;;;7.59;91.59;97044.58;109992;1247;69672;-66
2022/09/13 04:38:30;;;;;;;7.10;4.80;;;;;;;7.59;90.48;97041.30;110109;1247;69480;-65
2022/09/13 04:41:00;;;;;;;5.70;4.30;;;;;;;7.57;90.05;97041.77;110053;1248;59683;-65
2022/09/13 04:43:29;;;;;;;5.60;4.80;;;;;;;7.55;89.33;97037.75;110036;1248;59675;-65
2022/09/13 04:46:00;;;;;;;6.90;5.40;;;;;;;7.54;91.77;97037.15;110024;1247;70630;-65
2022/09/13 04:48:30;;;;;;;6.60;5.50;;;;;;;7.59;92.09;97039.86;109999;1248;68864;-65
2022/09/13 04:51:03;;;;;;;9.40;6.20;;;;;;;7.72;92.67;97037.29;110046;1247;69421;-64
2022/09/13 04:53:32;;;;;;;6.10;5.30;;;;;;;7.90;91.99;97035.23;110016;1247;59713;-67
2022/09/13 04:56:04;;;;;;;7.50;4.70;;;;;;;8.10;91.46;97032.77;110121;1247;59697;-65
2022/09/13 04:58:32;;;;;;;6.40;5.60;;;;;;;8.45;98.16;97036.33;110002;1247;71737;-66
2022/09/13 05:01:07;;;;;;;10.00;7.30;;;;;;;8.81;98.60;97033.38;109982;1247;68671;-66
2022/09/13 05:03:37;;;;;;;7.20;6.50;;;;;;;9.16;94.38;97036.61;110088;1247;68561;-67
2022/09/13 05:06:09;;;;;;;7.70;6.20;;;;;;;9.57;93.90;97041.91;110252;1249;59770;-66
2022/09/13 05:08:38;;;;;;;7.00;6.30;;;;;;;9.95;90.12;97040.29;110231;1248;59693;-67
2022/09/13 05:11:07;;;;;;;;;;;;;;;10.31;89.33;97044.48;109809;1247;70689;-67
2022/09/13 05:13:37;;;;;;;6.40;5.40;;;;;;;10.68;85.92;97043.87;109771;1250;69316;-68
2022/09/13 05:16:07;;;;;;;6.80;4.80;;;;;;;10.91;84.05;97044.66;110152;1248;70010;-66
2022/09/13 05:18:36;;;;;;;11.40;6.10;;;;;;;11.27;81.99;97051.90;110064;1248;59743;-67
2022/09/13 05:21:12;;;;;;;5.30;4.50;;;;;;;11.51;80.92;97055.16;110167;1247;59625;-66
2022/09/13 05:23:42;;;;;;;8.80;5.90;;;;;;;11.78;81.42;97058.91;110081;1249;71433;-66
2022/09/13 05:26:11;;;;;;;8.40;7.60;;;;;;;12.07;81.18;97060.11;110063;1248;69346;-66
2022/09/13 05:28:40;;;;;;;11.00;7.40;;;;;;;12.26;79.21;97057.98;108751;1248;1684910;-66
2022/09/13 05:31:15;;;;;;;11.20;9.10;;;;;;;12.48;79.75;97061.89;110063;1250;59700;-66
2022/09/13 05:33:47;;;;;;;12.80;9.40;;;;;;;12.53;75.11;97059.15;110183;1247;59698;-66
2022/09/13 05:36:15;;;;;;;6.30;5.30;;;;;;;12.66;75.38;97059.83;110011;1250;71714;-67
2022/09/13 05:38:44;;;;;;;7.30;5.90;;;;;;;12.80;73.84;97062.11;109670;1250;69172;-65
2022/09/13 05:41:13;;;;;;;7.00;6.00;;;;;;;12.84;72.55;97059.09;109994;1248;68411;-65
2022/09/13 05:43:43;;;;;;;5.60;4.90;;;;;;;13.00;70.90;97062.58;110075;1247;59751;-66
2022/09/13 05:46:15;;;;;;;9.60;5.80;;;;;;;13.25;72.26;97062.98;109742;1250;59678;-66
2022/09/13 05:48:45;;;;;;;8.40;5.40;;;;;;;13.27;70.34;97058.98;110008;1248;70840;-65
2022/09/13 05:51:19;;;;;;;5.70;4.70;;;;;;;13.47;69.62;97061.05;109803;1250;68478;-66
2022/09/13 05:53:51;;;;;;;4.70;4.30;;;;;;;13.48;68.71;97061.83;110119;1250;69276;-65
2022/09/13 05:56:26;;;;;;;5.00;4.20;;;;;;;13.78;68.60;97066.69;109949;1250;59712;-66
2022/09/13 05:58:55;;;;;;;5.30;4.30;;;;;;;14.02;67.84;97069.39;110004;1248;59764;-66
2022/09/13 06:01:26;;;;;;;5.30;4.60;;;;;;;14.37;67.85;97068.94;110023;1249;71538;-66
2022/09/13 06:03:57;;;;;;;4.80;4.20;;;;;;;14.69;65.48;97070.77;110015;1248;68630;-66
2022/09/13 06:06:26;;;;;;;4.60;3.60;;;;;;;14.81;65.51;97072.86;110034;1250;69436;-66
2022/09/13 06:08:56;;;;;;;4.50;4.10;;;;;;;15.25;65.68;97071.72;110300;1248;60170;-67
2022/09/13 06:11:26;;;;;;;5.50;4.10;;;;;;;15.26;62.05;97074.27;110066;1248;59770;-68
2022/09/13 06:13:54;;;;;;;;;;;;;;;15.28;61.86;97072.05;110115;1248;70810;-67
2022/09/13 06:16:23;;;;;;;3.70;3.30;;;;;;;15.25;60.96;97074.25;110041;1250;69400;-67
2022/09/13 06:18:53;;;;;;;5.90;3.60;;;;;;;15.46;61.55;97070.09;109665;1247;68638;-68
2022/09/13 06:21:22;;;;;;;4.60;3.60;;;;;;;15.74;61.45;97072.41;110071;1247;59720;-67
2022/09/13 06:23:57;;;;;;;4.20;2.90;;;;;;;15.91;60.67;97076.70;109793;1247;59688;-68
2022/09/13 06:26:27;;;;;;;4.00;3.00;;;;;;;16.26;60.89;97078.84;109704;1250;71837;-68
2022/09/13 06:28:57;;;;;;;3.00;2.70;;;;;;;16.17;57.28;97078.87;110035;1248;69476;-67
2022/09/13 06:31:27;;;;;;;3.60;2.60;;;;;;;16.55;58.55;97078.02;109868;1250;67661;-68
2022/09/13 06:33:59;;;;;;;3.10;2.50;;;;;;;16.06;56.77;97075.92;109896;1250;59697;-68
2022/09/13 06:36:30;;;;;;;2.50;2.20;;;;;;;16.08;56.96;97078.02;109784;1250;59726;-67
2022/09/13 06:39:00;;;;;;;2.50;2.30;;;;;;;15.93;56.69;97076.88;110015;1247;71215;-69
2022/09/13 06:41:30;;;;;;;2.90;2.40;;;;;;;16.42;56.78;97077.67;110049;1250;69627;-67
2022/09/13 06:44:00;;;;;;;2.50;2.20;;;;;;;16.73;56.20;97075.61;110064;1250;68663;-67
2022/09/13 06:46:32;;;;;;;4.50;2.60;;;;;;;17.19;55.78;97079.63;110074;1247;59694;-67
2022/09/13 06:49:04;;;;;;;3.50;2.90;;;;;;;17.15;56.01;97076.52;109718;1249;59678;-67
2022/09/13 06:51:34;;;;;;;3.20;2.60;;;;;;;17.35;55.13;97081.28;110013;1249;70772;-68
2022/09/13 06:54:04;;;;;;;3.20;2.60;;;;;;;17.59;54.64;97080.86;110022;1250;68495;-68
2022/09/13 06:56:35;;;;;;;3.40;2.60;;;;;;;17.94;53.78;97082.96;109893;1250;69256;-67
2022/09/13 06:59:07;;;;;;;3.40;2.60;;;;;;;18.40;52.80;97090.16;109876;1250;59692;-68
2022/09/13 07:01:38;;;;;;;3.10;2.80;;;;;;;18.28;51.88;97085.77;110047;1250;59739;-68
2022/09/13 07:04:10;;;;;;;3.40;2.20;;;;;;;17.88;51.89;97084.34;109899;1248;71564;-68
2022/09/13 07:06:42;;;;;;;4.50;2.90;;;;;;;18.51;51.49;97083.96;109788;1250;69369;-69
2022/09/13 07:09:17;;;;;;;2.90;2.40;;;;;;;19.01;50.75;97084.18;110194;1247;69586;-68
2022/09/13 07:11:47;;;;;;;2.80;2.50;;;;;;;18.87;49.96;97088.98;110165;1247;59652;-68
2022/09/13 07:14:20;;;;;;;2.80;2.20;;;;;;;19.05;50.42;97092.14;110089;1247;59660;-68
2022/09/13 07:16:50;;;;;;;3.70;2.20;;;;;;;18.90;50.53;97096.38;109685;1250;69776;-67
2022/09/13 07:19:27;;;;;;;2.50;2.20;;;;;;;18.80;51.02;97098.96;110044;1247;69235;-67
2022/09/13 07:21:56;;;;;;;4.10;2.90;;;;;;;18.39;50.84;97099.59;110020;1250;68900;-66
2022/09/13 07:24:26;;;;;;;3.50;2.50;;;;;;;18.06;52.61;97098.04;110011;1247;59952;-67
2022/09/13 07:26:55;;;;;;;4.00;2.50;;;;;;;17.94;53.14;97101.27;110092;1248;59786;-67
2022/09/13 07:29:24;;;;;;;5.10;2.70;;;;;;;17.68;53.30;97097.22;109993;1250;71748;-67
2022/09/13 07:31:55;;;;;;;3.10;2.70;;;;;;;17.43;54.17;97097.88;110052;1247;68638;-67
2022/09/13 07:34:26;;;;;;;2.80;2.50;;;;;;;16.79;54.31;97098.77;109987;1247;67985;-67
2022/09/13 07:36:55;;;;;;;2.80;2.30;;;;;;;16.75;54.46;97097.04;110205;1247;59753;-66
2022/09/13 07:39:23;;;;;;;3.70;3.30;;;;;;;16.33;55.43;97106.77;110085;1247;59681;-66
2022/09/13 07:41:52;;;;;;;5.00;3.60;;;;;;;15.98;56.16;97106.55;110045;1248;71461;-66
2022/09/13 07:44:21;;;;;;;4.50;2.60;;;;;;;15.54;57.89;97104.38;109954;1250;67673;-66
2022/09/13 07:46:51;;;;;;;4.00;2.70;;;;;;;15.76;57.67;97106.32;110060;1248;68712;-66
2022/09/13 07:49:20;;;;;;;2.90;2.50;;;;;;;15.65;58.33;97106.54;110097;1250;59776;-68
2022/09/13 07:51:50;;;;;;;4.50;3.30;;;;;;;15.93;57.27;97107.23;110271;1248;59663;-69
2022/09/13 07:54:19;;;;;;;3.90;2.80;;;;;;;16.29;56.88;97111.76;110078;1247;71339;-68
2022/09/13 07:56:50;;;;;;;3.90;2.90;;;;;;;16.62;56.82;97114.04;110058;1248;68837;-67
2022/09/13 07:59:19;;;;;;;3.40;2.90;;;;;;;16.89;56.08;97113.61;109994;1250;69405;-68
2022/09/13 08:01:50;;;;;;;3.20;2.30;;;;;;;16.85;56.29;97113.46;110119;1250;59762;-69
2022/09/13 08:04:24;;;;;;;3.20;2.60;;;;;;;16.94;54.90;97111.80;110104;1248;60062;-68
2022/09/13 08:06:54;;;;;;;3.30;2.30;;;;;;;16.45;55.38;97120.30;109768;1250;71491;-67
2022/09/13 08:09:23;;;;;;;2.30;1.80;;;;;;;16.57;54.70;97121.96;110176;1248;69477;-69
2022/09/13 08:11:52;;;;;;;2.30;1.80;;;;;;;16.60;55.56;97124.85;110066;1248;69422;-69
2022/09/13 08:14:22;;;;;;;;;;;;;;;16.74;56.29;97121.11;110103;1248;59807;-68
2022/09/13 08:16:55;;;;;;;;;;;;;;;16.75;56.63;97117.27;109885;1250;59732;-67
2022/09/13 08:19:25;;;;;;;2.90;2.00;;;;;;;16.83;56.07;97116.00;110082;1251;70750;-67
2022/09/13 08:21:53;;;;;;;3.10;2.70;;;;;;;16.67;55.79;97114.52;110056;1248;69270;-67
2022/09/13 08:24:23;;;;;;;3.00;2.30;;;;;;;16.85;56.66;97110.98;110068;1248;69479;-66
2022/09/13 08:26:53;;;;;;;2.50;2.30;;;;;;;17.06;56.26;97114.81;110050;1250;59726;-67
2022/09/13 08:29:24;;;;;;;3.40;2.30;;;;;;;17.15;55.61;97113.13;109709;1250;59674;-68
2022/09/13 08:31:53;;;;;;;3.90;2.70;;;;;;;17.25;55.85;97112.99;110084;1248;71366;-68
2022/09/13 08:34:22;;;;;;;2.70;2.10;;;;;;;17.24;55.42;97114.84;110131;1250;68722;-67
2022/09/13 08:36:51;;;;;;;3.30;2.70;;;;;;;17.17;55.28;97112.94;110063;1247;68923;-67
2022/09/13 08:39:20;;;;;;;2.30;2.00;;;;;;;16.92;55.74;97114.65;109656;1250;59687;-66
2022/09/13 08:42:06;;;;;;;3.90;2.00;;;;;;;16.96;55.93;97119.92;109994;1250;59710;-66
2022/09/13 08:44:46;;;;;;;2.40;1.80;;;;;;;16.84;54.59;97123.42;110023;1250;71649;-67
2022/09/13 08:47:30;;;;;;;;;;;;;;;16.67;55.52;97128.08;110092;1250;69576;-67
2022/09/13 08:50:08;;;;;;;1.70;1.60;;;;;;;16.72;55.60;97125.73;109778;1251;68672;-67
2022/09/13 08:52:54;;;;;;;2.20;2.00;;;;;;;16.71;55.52;97123.00;110034;1250;59713;-66
2022/09/13 08:55:42;;;;;;;2.00;1.50;;;;;;;16.75;55.25;97123.64;110021;1250;59710;-67
2022/09/13 08:58:34;;;;;;;2.50;1.50;;;;;;;16.81;54.87;97117.17;110004;1247;71500;-67
2022/09/13 09:01:28;;;;;;;2.00;1.80;;;;;;;16.77;55.16;97120.30;110014;1250;67825;-69
2022/09/13 09:04:00;;;;;;;2.30;2.00;;;;;;;16.72;55.74;97116.03;110010;1248;68578;-66
2022/09/13 09:06:29;;;;;;;2.10;1.90;;;;;;;16.76;55.62;97119.42;110054;1250;59747;-67
2022/09/13 09:09:13;;;;;;;2.90;1.80;;;;;;;16.84;55.69;97115.52;110016;1250;59676;-67
2022/09/13 09:12:11;;;;;;;3.30;1.60;;;;;;;16.95;55.60;97112.48;110028;1247;70769;-67
2022/09/13 09:14:52;;;;;;;2.40;1.90;;;;;;;16.97;55.42;97117.30;110047;1248;69391;-67
2022/09/13 09:17:27;;;;;;;2.10;1.70;;;;;;;17.10;55.45;97113.57;110027;1250;70044;-67
2022/09/13 09:20:23;;;;;;;3.10;1.80;;;;;;;17.12;55.13;97111.40;110003;1250;59758;-67
2022/09/13 09:22:54;;;;;;;1.80;1.50;;;;;;;17.22;54.63;97108.85;110017;1250;59707;-66
2022/09/13 09:25:25;;;;;;;2.90;2.00;;;;;;;17.22;54.28;97107.11;110033;1250;71578;-68
2022/09/13 09:27:55;;;;;;;2.00;1.70;;;;;;;17.19;55.06;97105.88;110025;1250;68730;-68
2022/09/13 09:30:37;;;;;;;2.00;1.40;;;;;;;17.18;55.22;97110.85;110055;1250;68678;-67
2022/09/13 09:33:29;;;;;;;1.90;1.60;;;;;;;17.27;55.36;97104.11;110032;1247;59742;-68
2022/09/13 09:36:18;;;;;;;1.50;1.30;;;;;;;17.42;55.30;97106.96;109918;1249;59690;-68
2022/09/13 09:38:48;;;;;;;2.20;1.50;;;;;;;17.59;54.25;97108.72;110026;1248;71612;-68
2022/09/13 09:41:27;;;;;;;4.80;2.00;;;;;;;17.51;53.80;97106.29;110021;1247;68448;-67
2022/09/13 09:44:05;;;;;;;2.60;2.00;;;;;;;17.13;54.37;97105.62;110003;1248;68575;-67
2022/09/13 09:46:38;;;;;;;2.10;1.70;;;;;;;17.17;54.59;97108.93;109996;1250;59670;-68
2022/09/13 09:52:09;;;;;;;1.80;1.50;;;;;;;17.54;53.60;97111.52;110024;1248;70807;-67
2022/09/13 09:54:40;;;;;;;1.60;1.40;;;;;;;17.70;52.75;97110.00;110018;1248;69443;-67
2022/09/13 09:57:10;;;;;;;2.20;1.80;;;;;;;17.83;52.93;97108.54;110048;1248;69396;-67
2022/09/13 09:59:38;;;;;;;;;;;;;;;18.06;52.43;97106.86;110002;1248;59758;-67
2022/09/13 10:02:20;;;;;;;1.70;1.60;;;;;;;18.22;51.65;97107.59;110054;1250;59750;-66
2022/09/13 10:04:58;;;;;;;2.60;1.60;;;;;;;18.02;51.11;97106.30;110099;1248;71578;-67
2022/09/13 10:07:32;;;;;;;1.80;1.40;;;;;;;17.95;52.52;97103.52;109984;1249;68463;-67
2022/09/13 10:10:37;;;;;;;1.30;1.20;;;;;;;17.97;51.90;97108.41;110082;1247;69395;-66
2022/09/13 10:13:12;;;;;;;1.90;1.30;;;;;;;18.06;51.38;97106.98;109957;1248;59683;-68
2022/09/13 10:15:56;;;;;;;1.70;1.30;;;;;;;17.94;51.90;97103.55;109782;1250;59675;-67
2022/09/13 10:18:28;;;;;;;2.80;1.30;;;;;;;18.35;51.53;97102.10;109967;1250;71449;-68
2022/09/13 10:21:16;;;;;;;2.70;1.20;;;;;;;18.75;50.90;97101.60;110020;1250;69081;-67
2022/09/13 10:23:52;;;;;;;2.30;2.00;;;;;;;19.08;50.26;97097.07;109804;1248;68468;-68
2022/09/13 10:26:24;;;;;;;1.70;1.30;;;;;;;19.14;49.64;97097.81;109790;1250;59771;-67
2022/09/13 10:29:02;;;;;;;1.40;1.10;;;;;;;19.15;48.78;97095.87;109637;1251;59740;-67
2022/09/13 10:31:37;;;;;;;3.50;1.40;;;;;;;19.28;48.40;97096.58;109743;1249;70770;-68
2022/09/13 10:34:16;;;;;;;1.90;1.40;;;;;;;19.64;47.97;97097.48;109737;1250;68741;-67
2022/09/13 10:37:18;;;;;;;2.50;1.50;;;;;;;19.87;46.84;97102.42;109779;1250;69455;-68
2022/09/13 10:39:53;;;;;;;3.10;1.40;;;;;;;20.08;46.64;97101.41;109687;1251;59770;-68
2022/09/13 10:42:26;;;;;;;1.30;1.20;;;;;;;20.47;47.11;97100.52;109764;1251;59651;-66
2022/09/13 10:45:01;;;;;;;1.90;1.10;;;;;;;20.86;45.79;97099.40;109793;1250;71372;-67
2022/09/13 10:47:37;;;;;;;1.90;1.30;;;;;;;20.88;45.67;97092.96;109847;1250;69700;-67
2022/09/13 10:50:19;;;;;;;1.30;1.20;;;;;;;20.89;46.01;97087.55;109782;1250;69462;-67
2022/09/13 10:52:54;;;;;;;1.30;1.00;;;;;;;20.79;46.20;97091.90;109775;1251;59765;-67
2022/09/13 10:55:32;;;;;;;1.50;1.00;;;;;;;20.78;45.09;97085.30;109696;1251;59706;-67
2022/09/13 10:58:01;;;;;;;1.60;1.20;;;;;;;21.16;46.22;97086.17;109712;1251;71023;-67
2022/09/13 11:01:05;;;;;;;2.00;1.10;;;;;;;21.15;43.84;97080.72;109688;1250;68478;-67
2022/09/13 11:03:51;;;;;;;1.10;1.00;;;;;;;20.64;45.25;97078.29;109732;1251;69249;-69
2022/09/13 11:06:32;;;;;;;1.80;1.20;;;;;;;20.53;44.47;97076.39;109700;1251;59706;-68
2022/09/13 11:09:13;;;;;;;1.10;1.00;;;;;;;20.55;44.71;97078.35;109760;1250;59748;-68
2022/09/13 11:12:01;;;;;;;1.40;1.10;;;;;;;20.76;44.78;97077.23;109978;1250;71561;-68
2022/09/13 11:14:52;;;;;;;1.90;1.10;;;;;;;20.84;44.58;97077.13;109788;1251;69726;-68
2022/09/13 11:17:31;;;;;;;3.00;1.10;;;;;;;20.87;44.42;97078.80;109730;1251;69339;-67
2022/09/13 11:20:16;;;;;;;1.10;0.80;;;;;;;20.88;44.34;97075.61;109748;1250;59697;-69
2022/09/13 11:23:13;;;;;;;1.30;1.20;;;;;;;21.00;45.03;97076.97;109806;1251;59684;-67
2022/09/13 11:25:55;;;;;;;2.80;1.20;;;;;;;21.15;45.08;97072.63;109748;1250;71554;-69
2022/09/13 11:28:29;;;;;;;1.40;1.00;;;;;;;21.41;44.63;97066.48;109933;1247;69445;-67
2022/09/13 11:31:15;;;;;;;1.00;0.90;;;;;;;21.34;44.26;97066.71;110113;1247;68660;-69
2022/09/13 11:33:53;;;;;;;1.50;1.10;;;;;;;21.24;43.53;97066.27;109994;1247;59743;-67
2022/09/13 11:36:36;;;;;;;0.90;0.80;;;;;;;21.26;42.98;97060.73;110015;1247;59682;-68
2022/09/13 11:39:20;;;;;;;1.60;1.10;;;;;;;21.32;42.58;97061.39;110055;1246;71963;-68
2022/09/13 11:42:47;;;;;;;1.60;1.10;;;;;;;21.17;43.01;97058.46;110016;1247;69204;-69
2022/09/13 11:45:51;;;;;;;0.90;0.90;;;;;;;20.42;43.58;97055.86;109279;1256;68698;-69
2022/09/13 11:48:34;;;;;;;2.40;1.00;;;;;;;20.25;45.93;97060.94;109272;1257;59809;-67
2022/09/13 11:51:03;;;;;;;1.10;0.90;;;;;;;20.26;44.17;97063.89;109708;1249;59693;-66
2022/09/13 11:53:59;;;;;;;1.80;1.20;;;;;;;20.32;44.75;97061.23;110029;1248;71033;-67
2022/09/13 11:56:37;;;;;;;1.50;1.20;;;;;;;20.13;45.31;97060.88;110010;1248;69776;-67
2022/09/13 11:59:46;;;;;;;1.10;1.00;;;;;;;20.02;45.32;97060.66;110008;1247;69238;-67
2022/09/13 12:02:38;;;;;;;1.70;1.00;;;;;;;20.13;45.44;97059.77;109476;1249;59714;-67
2022/09/13 12:05:33;;;;;;;1.30;0.90;;;;;;;20.20;44.55;97058.73;110001;1247;59691;-67
2022/09/13 12:08:10;;;;;;;1.10;0.80;;;;;;;20.19;45.01;97052.06;109953;1247;71076;-67
2022/09/13 12:11:18;;;;;;;1.80;1.10;;;;;;;20.12;45.02;97054.40;109841;1250;68649;-67
2022/09/13 12:14:01;;;;;;;1.50;1.00;;;;;;;19.89;45.64;97049.55;109714;1251;69384;-67
2022/09/13 12:16:29;;;;;;;1.40;1.00;;;;;;;19.61;46.47;97049.86;110097;1247;59625;-66
2022/09/13 12:19:18;;;;;;;2.20;1.10;;;;;;;19.38;47.67;97050.80;110009;1247;59712;-67